Aviation Digital Data Service (ADDS)

Output produced by METARs form (0830 UTC 21 January 2017)
found at http://www.aviationweather.gov/adds/metars/
 
TAF COR KPHL 210540Z 2106/2212 00000KT 5SM BR OVC005 
     TEMPO 2109/2113 1SM BR OVC003 
     FM211500 22004KT 5SM BR BKN006 OVC015 
     FM211700 24006KT P6SM BKN015 
     FM220100 VRB03KT 5SM BR OVC002